createdAt,value
2022-12-28T00:01:33.492Z,1.26
2022-12-28T00:04:37.628Z,1.45
2022-12-28T00:07:40.395Z,1.49
2022-12-28T00:11:08.799Z,1.57
2022-12-28T00:14:07.232Z,1.54
2022-12-28T00:17:13.282Z,1.54
2022-12-28T00:20:18.323Z,1.53
2022-12-28T00:23:20.959Z,1.53
2022-12-28T00:26:23.889Z,1.50
2022-12-28T00:29:29.616Z,1.59
2022-12-28T00:32:32.729Z,1.65
2022-12-28T00:35:36.800Z,1.61
2022-12-28T00:38:40.089Z,1.58
2022-12-28T00:41:42.841Z,1.52
2022-12-28T00:44:46.864Z,1.43
2022-12-28T00:47:49.593Z,1.29
2022-12-28T00:50:53.823Z,1.29
2022-12-28T00:54:03.167Z,1.23
2022-12-28T00:57:05.872Z,1.01
2022-12-28T01:00:09.518Z,1.10
2022-12-28T01:03:12.267Z,1.12
2022-12-28T01:06:20.885Z,1.16
2022-12-28T01:09:25.785Z,1.32
2022-12-28T01:12:38.357Z,1.15
2022-12-28T01:15:41.308Z,1.37
2022-12-28T01:18:45.436Z,1.41
2022-12-28T01:21:50.896Z,1.36
2022-12-28T01:24:56.585Z,1.35
2022-12-28T01:27:59.276Z,1.37
2022-12-28T01:31:05.549Z,1.39
2022-12-28T01:34:08.216Z,1.35
2022-12-28T01:37:12.279Z,1.34
2022-12-28T01:40:18.950Z,1.41
2022-12-28T01:43:39.130Z,1.36
2022-12-28T01:46:45.259Z,1.31
2022-12-28T01:49:57.478Z,1.46
2022-12-28T01:53:05.128Z,1.43
2022-12-28T01:56:11.486Z,1.46
2022-12-28T01:59:14.257Z,1.55
2022-12-28T02:02:21.490Z,1.62
2022-12-28T02:05:28.632Z,1.51
2022-12-28T02:08:41.307Z,1.56
2022-12-28T02:11:45.009Z,1.58
2022-12-28T02:14:48.184Z,1.64
2022-12-28T02:17:51.671Z,1.67
2022-12-28T02:21:15.852Z,1.67
2022-12-28T02:24:46.439Z,1.65
2022-12-28T02:28:00.842Z,1.75
2022-12-28T02:31:16.380Z,1.74
2022-12-28T02:34:26.616Z,1.70
2022-12-28T02:37:36.729Z,1.86
2022-12-28T02:40:44.168Z,1.79
2022-12-28T02:43:47.494Z,1.91
2022-12-28T02:47:08.991Z,1.88
2022-12-28T02:50:17.075Z,1.81
2022-12-28T02:53:50.273Z,1.82
2022-12-28T02:57:03.075Z,1.95
2022-12-28T03:00:08.390Z,1.78
2022-12-28T03:03:31.368Z,1.74
2022-12-28T03:07:00.323Z,1.96
2022-12-28T03:10:12.805Z,2.03
2022-12-28T03:13:39.976Z,2.09
2022-12-28T03:17:02.236Z,2.00
2022-12-28T03:20:29.994Z,2.01
2022-12-28T03:23:52.837Z,2.21
2022-12-28T03:27:31.135Z,2.22
2022-12-28T03:30:52.844Z,2.18
2022-12-28T03:34:06.566Z,2.16
2022-12-28T03:37:18.705Z,2.19
2022-12-28T03:40:28.731Z,2.13
2022-12-28T03:43:41.761Z,2.16
2022-12-28T03:46:48.997Z,2.08
2022-12-28T03:49:52.120Z,2.21
2022-12-28T03:52:56.625Z,2.20
2022-12-28T03:56:10.566Z,2.20
2022-12-28T03:59:13.367Z,2.23
2022-12-28T04:02:16.189Z,2.33
2022-12-28T04:05:19.000Z,2.33
2022-12-28T04:08:24.444Z,2.35
2022-12-28T04:11:33.587Z,2.35
2022-12-28T04:14:36.312Z,2.43
2022-12-28T04:17:41.218Z,2.44
2022-12-28T04:20:44.760Z,2.39
2022-12-28T04:23:49.233Z,2.38
2022-12-28T04:26:54.269Z,2.32
2022-12-28T04:29:58.863Z,2.37
2022-12-28T04:33:06.437Z,2.49
2022-12-28T04:36:12.168Z,2.49
2022-12-28T04:39:16.221Z,2.45
2022-12-28T04:42:18.987Z,2.35
2022-12-28T04:45:22.391Z,2.44
2022-12-28T04:48:33.103Z,2.53
2022-12-28T04:51:36.015Z,2.58
2022-12-28T04:54:40.192Z,2.68
2022-12-28T04:57:46.566Z,2.77
2022-12-28T05:01:04.310Z,2.77
2022-12-28T05:04:08.808Z,2.83
2022-12-28T05:07:13.696Z,2.45
2022-12-28T05:10:17.878Z,2.81
2022-12-28T05:13:23.587Z,2.81
2022-12-28T05:16:28.448Z,2.79
2022-12-28T05:19:31.210Z,2.77
2022-12-28T05:22:39.073Z,2.68
2022-12-28T05:25:52.555Z,2.65
2022-12-28T05:28:56.984Z,2.67
2022-12-28T05:31:59.690Z,2.68
2022-12-28T05:35:04.579Z,2.69
2022-12-28T05:38:10.003Z,2.80
2022-12-28T05:41:17.434Z,2.87
2022-12-28T05:44:20.120Z,2.79
2022-12-28T05:47:24.935Z,2.76
2022-12-28T05:50:30.702Z,2.73
2022-12-28T05:53:35.758Z,2.79
2022-12-28T05:56:50.745Z,2.71
2022-12-28T05:59:53.470Z,2.71
2022-12-28T06:02:56.488Z,2.75
2022-12-28T06:06:04.449Z,2.74
2022-12-28T06:09:07.223Z,2.65
2022-12-28T06:12:11.279Z,2.61
2022-12-28T06:15:13.957Z,2.57
2022-12-28T06:18:16.940Z,2.59
2022-12-28T06:21:21.506Z,2.58
2022-12-28T06:24:24.213Z,2.57
2022-12-28T06:27:28.266Z,2.65
2022-12-28T06:30:31.018Z,2.54
2022-12-28T06:33:34.266Z,2.64
2022-12-28T06:36:38.663Z,2.64
2022-12-28T06:39:41.347Z,2.82
2022-12-28T06:42:45.413Z,2.76
2022-12-28T06:45:58.099Z,2.79
2022-12-28T06:49:01.047Z,2.82
2022-12-28T06:52:03.907Z,2.82
2022-12-28T06:55:07.520Z,2.83
2022-12-28T06:58:11.595Z,2.96
2022-12-28T07:01:16.434Z,2.97
2022-12-28T07:04:19.208Z,3.01
2022-12-28T07:07:29.227Z,2.47
2022-12-28T07:10:31.920Z,3.08
2022-12-28T07:13:36.486Z,3.17
2022-12-28T07:19:41.131Z,3.24
2022-12-28T07:22:46.965Z,3.25
2022-12-28T07:25:49.657Z,3.24
2022-12-28T07:29:02.018Z,3.11
2022-12-28T07:32:05.155Z,3.30
2022-12-28T07:35:09.090Z,3.32
2022-12-28T07:38:12.440Z,3.53
2022-12-28T07:41:20.529Z,3.64
2022-12-28T07:44:29.581Z,3.63
2022-12-28T07:47:34.337Z,3.73
2022-12-28T07:50:38.255Z,3.76
2022-12-28T07:53:41.942Z,3.88
2022-12-28T07:56:44.767Z,3.90
2022-12-28T07:59:48.825Z,4.01
2022-12-28T08:02:51.551Z,4.12
2022-12-28T08:05:54.275Z,4.32
2022-12-28T08:09:00.098Z,4.52
2022-12-28T08:12:05.565Z,4.69
2022-12-28T08:15:11.797Z,4.87
2022-12-28T08:18:14.477Z,5.04
2022-12-28T08:21:21.554Z,5.24
2022-12-28T08:24:24.584Z,5.39
2022-12-28T08:27:27.269Z,5.58
2022-12-28T08:30:31.493Z,5.79
2022-12-28T08:33:34.301Z,5.85
2022-12-28T08:36:37.405Z,6.05
2022-12-28T08:39:40.104Z,6.11
2022-12-28T08:42:43.267Z,6.16
2022-12-28T08:45:57.889Z,6.00
2022-12-28T08:49:02.096Z,6.18
2022-12-28T08:52:05.057Z,6.16
2022-12-28T08:55:08.372Z,6.12
2022-12-28T08:58:11.102Z,6.11
2022-12-28T09:01:17.495Z,6.16
2022-12-28T09:04:22.788Z,6.25
2022-12-28T09:07:28.500Z,6.34
2022-12-28T09:10:37.410Z,6.44
2022-12-28T09:13:54.181Z,6.51
2022-12-28T09:16:58.415Z,6.72
2022-12-28T09:20:08.191Z,6.89
2022-12-28T09:23:10.886Z,7.05
2022-12-28T09:26:15.046Z,7.22
2022-12-28T09:29:17.797Z,7.37
2022-12-28T09:32:22.483Z,7.48
2022-12-28T09:35:27.322Z,7.59
2022-12-28T09:38:31.815Z,7.74
2022-12-28T09:41:40.596Z,7.94
2022-12-28T09:44:56.078Z,8.10
2022-12-28T09:48:08.556Z,8.22
2022-12-28T09:51:11.455Z,8.29
2022-12-28T09:54:14.334Z,8.34
2022-12-28T09:57:20.132Z,8.33
2022-12-28T10:00:25.218Z,8.32
2022-12-28T10:03:36.136Z,8.29
2022-12-28T10:06:40.467Z,8.27
2022-12-28T10:09:43.569Z,8.26
2022-12-28T10:12:48.500Z,8.26
2022-12-28T10:15:52.635Z,8.23
2022-12-28T10:18:58.587Z,8.23
2022-12-28T10:22:04.126Z,8.27
2022-12-28T10:25:14.944Z,8.27
2022-12-28T10:28:24.265Z,8.31
2022-12-28T10:31:38.745Z,8.30
2022-12-28T10:34:58.545Z,8.34
2022-12-28T10:38:07.602Z,8.43
2022-12-28T10:41:14.450Z,8.50
2022-12-28T10:44:40.365Z,8.54
2022-12-28T10:47:45.861Z,8.67
2022-12-28T10:50:54.283Z,8.76
2022-12-28T10:53:58.256Z,8.83
2022-12-28T10:57:02.632Z,8.90
2022-12-28T11:00:16.696Z,8.94
2022-12-28T11:03:25.742Z,9.02
2022-12-28T11:06:33.131Z,9.10
2022-12-28T11:09:36.932Z,9.19
2022-12-28T11:12:44.246Z,9.29
2022-12-28T11:15:47.695Z,9.44
2022-12-28T11:18:51.446Z,9.57
2022-12-28T11:21:55.609Z,9.72
2022-12-28T11:25:02.038Z,9.85
2022-12-28T11:28:12.432Z,10.05
2022-12-28T11:31:25.051Z,10.24
2022-12-28T11:34:29.688Z,10.16
2022-12-28T11:37:34.697Z,10.49
2022-12-28T11:40:52.489Z,10.56
2022-12-28T11:43:56.105Z,10.72
2022-12-28T11:47:05.002Z,10.86
2022-12-28T11:50:44.158Z,10.93
2022-12-28T11:53:53.929Z,10.94
2022-12-28T11:57:01.084Z,10.96
2022-12-28T12:00:41.321Z,11.16
2022-12-28T12:04:19.387Z,11.14
2022-12-28T12:07:31.552Z,11.13
2022-12-28T12:10:38.953Z,11.02
2022-12-28T12:13:44.631Z,11.03
2022-12-28T12:16:51.185Z,11.05
2022-12-28T12:20:04.130Z,10.94
2022-12-28T12:23:11.684Z,10.82
2022-12-28T12:26:28.162Z,10.64
2022-12-28T12:29:39.354Z,10.81
2022-12-28T12:32:46.589Z,10.85
2022-12-28T12:36:00.743Z,10.85
2022-12-28T12:39:23.607Z,10.60
2022-12-28T12:42:36.515Z,10.89
2022-12-28T12:45:58.784Z,10.89
2022-12-28T12:49:25.568Z,10.94
2022-12-28T12:52:50.535Z,10.95
2022-12-28T12:56:04.385Z,10.96
2022-12-28T12:59:34.297Z,11.02
2022-12-28T13:03:23.970Z,11.05
2022-12-28T13:06:31.291Z,11.15
2022-12-28T13:09:35.944Z,11.22
2022-12-28T13:12:42.430Z,11.32
2022-12-28T13:15:46.756Z,11.41
2022-12-28T13:19:05.070Z,11.33
2022-12-28T13:22:26.439Z,11.53
2022-12-28T13:25:30.998Z,11.48
2022-12-28T13:28:36.774Z,11.41
2022-12-28T13:31:42.371Z,11.34
2022-12-28T13:38:14.392Z,11.05
2022-12-28T13:41:25.467Z,11.06
2022-12-28T13:44:34.757Z,11.03
2022-12-28T13:47:42.184Z,11.01
2022-12-28T13:50:45.069Z,10.98
2022-12-28T13:53:52.339Z,10.95
2022-12-28T13:57:20.588Z,10.93
2022-12-28T14:00:24.783Z,10.90
2022-12-28T14:03:38.950Z,10.91
2022-12-28T14:06:43.901Z,10.93
2022-12-28T14:09:48.171Z,10.90
2022-12-28T14:12:52.438Z,10.89
2022-12-28T14:15:58.306Z,10.83
2022-12-28T14:19:04.490Z,10.79
2022-12-28T14:22:25.489Z,10.60
2022-12-28T14:25:28.314Z,10.71
2022-12-28T14:28:36.787Z,10.66
2022-12-28T14:31:40.179Z,10.61
2022-12-28T14:34:44.808Z,10.55
2022-12-28T14:37:52.673Z,10.52
2022-12-28T14:40:59.157Z,10.50
2022-12-28T14:44:14.197Z,10.46
2022-12-28T14:47:45.857Z,10.45
2022-12-28T14:50:58.493Z,10.44
2022-12-28T14:54:26.265Z,10.38
2022-12-28T14:57:36.957Z,10.42
2022-12-28T15:00:39.768Z,10.39
2022-12-28T15:03:54.277Z,10.33
2022-12-28T15:06:59.019Z,10.28
2022-12-28T15:10:03.636Z,10.25
2022-12-28T15:13:06.417Z,10.24
2022-12-28T15:16:12.651Z,10.19
2022-12-28T15:19:16.498Z,10.17
2022-12-28T15:22:20.676Z,10.13
2022-12-28T15:25:23.596Z,10.10
2022-12-28T15:28:29.279Z,10.05
2022-12-28T15:31:32.012Z,10.02
2022-12-28T15:34:34.724Z,10.05
2022-12-28T15:37:38.806Z,9.97
2022-12-28T15:40:41.786Z,9.94
2022-12-28T15:43:44.645Z,9.90
2022-12-28T15:46:49.846Z,9.87
2022-12-28T15:49:52.623Z,9.82
2022-12-28T15:52:58.737Z,9.76
2022-12-28T15:56:03.885Z,9.71
2022-12-28T15:59:15.546Z,9.76
2022-12-28T16:02:19.472Z,9.73
2022-12-28T16:05:26.317Z,9.73
2022-12-28T16:08:33.541Z,9.68
2022-12-28T16:11:36.510Z,9.68
2022-12-28T16:14:39.467Z,9.61
2022-12-28T16:17:51.378Z,9.55
2022-12-28T16:21:01.023Z,9.50
2022-12-28T16:24:05.725Z,9.45
2022-12-28T16:27:09.554Z,9.39
2022-12-28T16:30:13.424Z,9.37
2022-12-28T16:33:16.375Z,9.35
2022-12-28T16:36:20.076Z,9.33
2022-12-28T16:39:24.907Z,9.31
2022-12-28T16:42:27.897Z,9.26
2022-12-28T16:45:35.060Z,9.06
2022-12-28T16:48:38.644Z,8.99
2022-12-28T16:51:43.882Z,9.09
2022-12-28T16:54:48.013Z,8.98
2022-12-28T16:57:50.755Z,8.91
2022-12-28T17:00:53.537Z,8.86
2022-12-28T17:04:03.398Z,8.68
2022-12-28T17:07:06.609Z,8.73
2022-12-28T17:10:11.718Z,8.75
2022-12-28T17:13:16.397Z,8.79
2022-12-28T17:16:19.209Z,8.85
2022-12-28T17:19:22.546Z,8.89
2022-12-28T17:22:30.360Z,8.94
2022-12-28T17:25:36.338Z,8.83
2022-12-28T17:28:39.124Z,8.99
2022-12-28T17:31:41.960Z,9.02
2022-12-28T17:34:44.687Z,9.01
2022-12-28T17:37:47.718Z,9.01
2022-12-28T17:40:51.762Z,9.00
2022-12-28T17:43:55.885Z,9.00
2022-12-28T17:46:58.593Z,9.00
2022-12-28T17:50:01.321Z,9.00
2022-12-28T17:53:04.123Z,9.05
2022-12-28T17:56:10.283Z,9.12
2022-12-28T17:59:15.010Z,9.13
2022-12-28T18:02:20.058Z,9.15
2022-12-28T18:05:22.965Z,9.17
2022-12-28T18:08:25.939Z,9.14
2022-12-28T18:11:30.191Z,9.06
2022-12-28T18:14:32.914Z,9.07
2022-12-28T18:17:35.627Z,9.03
2022-12-28T18:20:38.370Z,9.00
2022-12-28T18:23:41.333Z,8.98
2022-12-28T18:26:45.437Z,8.96
2022-12-28T18:29:48.271Z,8.92
2022-12-28T18:32:51.048Z,8.91
2022-12-28T18:35:53.801Z,8.90
2022-12-28T18:38:56.605Z,8.83
2022-12-28T18:42:00.627Z,8.79
2022-12-28T18:45:03.587Z,8.78
2022-12-28T18:48:06.832Z,8.77
2022-12-28T18:51:12.335Z,8.73
2022-12-28T18:54:15.059Z,8.67
2022-12-28T18:57:19.188Z,8.59
2022-12-28T19:00:22.110Z,8.48
2022-12-28T19:03:24.999Z,8.54
2022-12-28T19:06:27.845Z,8.45
2022-12-28T19:09:30.621Z,8.54
2022-12-28T19:12:34.697Z,8.48
2022-12-28T19:15:37.569Z,8.43
2022-12-28T19:18:40.357Z,8.45
2022-12-28T19:21:43.464Z,8.21
2022-12-28T19:24:46.201Z,8.30
2022-12-28T19:27:50.789Z,8.30
2022-12-28T19:30:55.246Z,8.30
2022-12-28T19:34:02.065Z,8.39
2022-12-28T19:37:07.174Z,8.35
2022-12-28T19:40:10.797Z,8.41
2022-12-28T19:43:25.253Z,8.45
2022-12-28T19:46:32.091Z,8.39
2022-12-28T19:49:35.259Z,8.42
2022-12-28T19:52:37.961Z,8.44
2022-12-28T19:55:40.689Z,8.42
2022-12-28T19:58:46.029Z,8.42
2022-12-28T20:01:49.009Z,8.43
2022-12-28T20:04:51.770Z,8.41
2022-12-28T20:07:54.453Z,8.45
2022-12-28T20:10:57.816Z,8.54
2022-12-28T20:14:03.771Z,8.55
2022-12-28T20:17:06.502Z,8.65
2022-12-28T20:20:09.996Z,8.69
2022-12-28T20:23:16.737Z,8.74
2022-12-28T20:26:24.664Z,8.78
2022-12-28T20:29:28.845Z,8.81
2022-12-28T20:32:32.558Z,8.84
2022-12-28T20:35:35.221Z,8.86
2022-12-28T20:38:37.929Z,8.87
2022-12-28T20:41:58.182Z,8.90
2022-12-28T20:45:02.253Z,8.91
2022-12-28T20:48:05.578Z,8.95
2022-12-28T20:51:08.311Z,8.97
2022-12-28T20:54:11.679Z,8.99
2022-12-28T20:57:14.442Z,9.01
2022-12-28T21:00:19.091Z,9.01
2022-12-28T21:03:22.023Z,9.06
2022-12-28T21:06:25.081Z,9.07
2022-12-28T21:09:27.776Z,9.07
2022-12-28T21:12:30.569Z,9.06
2022-12-28T21:15:34.800Z,9.10
2022-12-28T21:18:37.527Z,9.10
2022-12-28T21:21:40.302Z,9.10
2022-12-28T21:24:43.090Z,9.11
2022-12-28T21:27:48.936Z,9.10
2022-12-28T21:30:55.719Z,9.11
2022-12-28T21:33:58.508Z,9.10
2022-12-28T21:37:21.821Z,9.09
2022-12-28T21:40:24.637Z,9.09
2022-12-28T21:43:27.709Z,9.08
2022-12-28T21:46:31.836Z,9.09
2022-12-28T21:49:34.564Z,9.13
2022-12-28T21:52:38.930Z,9.21
2022-12-28T21:55:44.462Z,9.27
2022-12-28T21:58:47.947Z,9.33
2022-12-28T22:02:10.540Z,9.37
2022-12-28T22:09:20.835Z,9.43
2022-12-28T22:12:37.336Z,9.52
2022-12-28T22:15:52.166Z,9.52
2022-12-28T22:19:03.972Z,9.54
2022-12-28T22:22:12.624Z,9.57
2022-12-28T22:25:16.107Z,9.61
2022-12-28T22:28:18.792Z,9.63
2022-12-28T22:31:21.710Z,9.48
2022-12-28T22:34:25.761Z,9.68
2022-12-28T22:37:29.170Z,9.39
2022-12-28T22:40:31.917Z,9.73
2022-12-28T22:43:34.666Z,9.75
2022-12-28T22:46:37.653Z,9.77
2022-12-28T22:49:41.802Z,9.77
2022-12-28T22:52:45.053Z,9.78
2022-12-28T22:55:57.507Z,9.68
2022-12-28T22:59:04.685Z,9.80
2022-12-28T23:02:08.102Z,9.82
2022-12-28T23:05:15.956Z,9.86
2022-12-28T23:08:18.740Z,9.77
2022-12-28T23:11:39.576Z,9.72
2022-12-28T23:14:59.970Z,9.67
2022-12-28T23:18:28.607Z,9.54
2022-12-28T23:21:50.624Z,9.47
2022-12-28T23:25:10.840Z,9.41
2022-12-28T23:28:16.055Z,9.30
2022-12-28T23:31:18.842Z,9.27
2022-12-28T23:34:21.570Z,9.25
2022-12-28T23:37:25.659Z,9.25
2022-12-28T23:40:28.840Z,9.35
2022-12-28T23:43:33.242Z,9.50
2022-12-28T23:46:41.284Z,9.67
2022-12-28T23:49:44.258Z,9.76
2022-12-28T23:52:48.367Z,9.99
2022-12-28T23:55:52.762Z,10.14
2022-12-28T23:58:58.587Z,10.26
